Time;durP1;ratioP1;P1;durP2;ratioP2;P2;SDS_P1;SDS_P2;PMS_P1;PMS_P2;Temp;Humidity;BMP_temperature;BMP_pressure;BME280_temperature;BME280_humidity;BME280_pressure;Samples;Min_cycle;Max_cycle;Signal;HPM_P1;HPM_P2
2022/04/03 00:00:42;;;;;;;;;7.00;6.00;;;;;;;;5034889;28;46436;-72
2022/04/03 00:03:08;;;;;;;;;2.00;2.00;;;;;;;;5035504;28;45602;-72
2022/04/03 00:05:37;;;;;;;;;3.00;2.00;;;;;;;;5035183;28;45615;-72
2022/04/03 00:08:03;;;;;;;;;3.00;1.25;;;;;;;;5037214;28;45418;-72
2022/04/03 00:10:28;;;;;;;;;1.50;1.50;;;;;;;;5037942;28;45508;-72
2022/04/03 00:12:54;;;;;;;;;5.00;3.00;;;;;;;;5037219;28;45384;-73
2022/04/03 00:15:19;;;;;;;;;2.00;2.00;;;;;;;;5035903;28;45692;-72
2022/04/03 00:17:46;;;;;;;;;2.00;2.00;;;;;;;;5038783;28;45665;-73
2022/04/03 00:20:12;;;;;;;;;4.00;2.00;;;;;;;;5036768;28;45806;-72
2022/04/03 00:22:38;;;;;;;;;2.50;2.25;;;;;;;;5035546;28;46079;-72
2022/04/03 00:25:03;;;;;;;;;3.75;3.00;;;;;;;;5039310;28;45403;-72
2022/04/03 00:27:29;;;;;;;;;5.00;4.00;;;;;;;;5034639;28;45662;-72
2022/04/03 00:29:54;;;;;;;;;5.00;3.25;;;;;;;;5035084;28;45536;-72
2022/04/03 00:32:19;;;;;;;;;6.75;6.00;;;;;;;;5034024;28;45390;-72
2022/04/03 00:34:45;;;;;;;;;7.25;6.75;;;;;;;;5035581;28;45552;-73
2022/04/03 00:37:11;;;;;;;;;3.50;3.25;;;;;;;;5036570;28;45790;-72
2022/04/03 00:39:36;;;;;;;;;6.00;5.50;;;;;;;;5034831;28;46109;-72
2022/04/03 00:42:04;;;;;;;;;4.00;3.25;;;;;;;;5034869;28;45411;-72
2022/04/03 00:44:30;;;;;;;;;3.25;3.25;;;;;;;;5034276;28;45997;-72
2022/04/03 00:46:56;;;;;;;;;3.50;2.25;;;;;;;;5035592;28;45544;-73
2022/04/03 00:49:22;;;;;;;;;2.50;2.50;;;;;;;;5035684;28;46179;-73
2022/04/03 00:51:47;;;;;;;;;2.25;2.00;;;;;;;;5034656;28;45371;-72
2022/04/03 00:54:13;;;;;;;;;3.25;2.00;;;;;;;;5040206;28;45548;-72
2022/04/03 00:56:38;;;;;;;;;4.50;2.00;;;;;;;;5037191;28;45726;-72
2022/04/03 00:59:03;;;;;;;;;2.00;2.00;;;;;;;;5037957;28;46412;-72
2022/04/03 01:01:29;;;;;;;;;1.75;1.75;;;;;;;;5037812;28;45564;-72
2022/04/03 01:03:54;;;;;;;;;4.00;4.00;;;;;;;;5040973;28;45441;-72
2022/04/03 01:06:19;;;;;;;;;3.00;3.00;;;;;;;;5038812;28;45547;-72
2022/04/03 01:08:45;;;;;;;;;2.00;2.00;;;;;;;;5038340;28;46511;-72
2022/04/03 01:11:13;;;;;;;;;2.00;2.00;;;;;;;;5037261;28;45528;-71
2022/04/03 01:13:46;;;;;;;;;1.25;1.25;;;;;;;;5037521;28;45403;-71
2022/04/03 01:16:11;;;;;;;;;2.50;2.00;;;;;;;;5037914;28;45441;-71
2022/04/03 01:18:37;;;;;;;;;3.00;2.00;;;;;;;;5037305;28;45561;-72
2022/04/03 01:21:02;;;;;;;;;1.00;1.00;;;;;;;;5037495;28;45381;-71
2022/04/03 01:23:28;;;;;;;;;2.00;2.00;;;;;;;;5038598;28;45407;-71
2022/04/03 01:25:53;;;;;;;;;4.25;2.00;;;;;;;;5040051;28;45331;-72
2022/04/03 01:28:18;;;;;;;;;5.00;2.00;;;;;;;;5039975;28;45424;-72
2022/04/03 01:30:44;;;;;;;;;4.00;2.00;;;;;;;;5037681;28;45371;-72
2022/04/03 01:33:09;;;;;;;;;2.00;2.00;;;;;;;;5037553;28;45535;-72
2022/04/03 01:35:35;;;;;;;;;5.25;4.50;;;;;;;;5040637;28;45566;-72
2022/04/03 01:38:00;;;;;;;;;4.00;2.50;;;;;;;;5039764;28;46390;-71
2022/04/03 01:40:25;;;;;;;;;8.00;6.00;;;;;;;;5037078;28;45446;-72
2022/04/03 01:42:51;;;;;;;;;5.00;5.00;;;;;;;;5040268;28;45459;-72
2022/04/03 01:45:16;;;;;;;;;6.00;6.00;;;;;;;;5037632;28;45418;-72
2022/04/03 01:47:42;;;;;;;;;2.00;2.00;;;;;;;;5036011;28;46850;-71
2022/04/03 01:50:07;;;;;;;;;2.00;1.75;;;;;;;;5043065;28;45860;-71
2022/04/03 01:52:33;;;;;;;;;2.00;2.00;;;;;;;;5037266;28;45541;-71
2022/04/03 01:54:59;;;;;;;;;1.75;1.75;;;;;;;;5036615;28;45582;-71
2022/04/03 01:57:25;;;;;;;;;0.75;0.75;;;;;;;;5039567;28;46358;-72
2022/04/03 01:59:50;;;;;;;;;3.50;2.00;;;;;;;;5038929;28;45581;-72
2022/04/03 02:02:16;;;;;;;;;1.50;1.00;;;;;;;;5037881;28;45525;-71
2022/04/03 02:04:41;;;;;;;;;1.25;1.00;;;;;;;;5035684;28;45899;-71
2022/04/03 02:07:06;;;;;;;;;0.75;0.75;;;;;;;;5039060;28;46680;-71
2022/04/03 02:09:32;;;;;;;;;1.00;0.50;;;;;;;;5038073;28;45498;-72
2022/04/03 02:11:57;;;;;;;;;1.00;1.00;;;;;;;;5041135;28;45442;-72
2022/04/03 02:14:24;;;;;;;;;1.25;1.00;;;;;;;;5037013;28;45612;-71
2022/04/03 02:16:51;;;;;;;;;0.25;0.25;;;;;;;;5040210;28;45567;-72
2022/04/03 02:19:16;;;;;;;;;0.75;0.75;;;;;;;;5051564;28;45449;-72
2022/04/03 02:21:42;;;;;;;;;1.75;1.50;;;;;;;;5043675;28;45626;-72
2022/04/03 02:24:07;;;;;;;;;1.00;1.00;;;;;;;;5038710;28;45461;-71
2022/04/03 02:26:33;;;;;;;;;1.25;1.25;;;;;;;;5040456;28;46575;-72
2022/04/03 02:28:58;;;;;;;;;2.00;2.00;;;;;;;;5047632;28;45418;-72
2022/04/03 02:31:23;;;;;;;;;3.00;3.00;;;;;;;;5038225;28;45542;-72
2022/04/03 02:33:49;;;;;;;;;2.00;2.00;;;;;;;;5040664;28;45556;-72
2022/04/03 02:36:14;;;;;;;;;5.00;4.25;;;;;;;;5039208;28;46473;-72
2022/04/03 02:38:39;;;;;;;;;3.00;2.00;;;;;;;;5048527;28;45470;-72
2022/04/03 02:41:05;;;;;;;;;3.25;3.00;;;;;;;;5038254;28;45390;-71
2022/04/03 02:43:30;;;;;;;;;1.75;1.75;;;;;;;;5041820;28;45669;-72
2022/04/03 02:45:55;;;;;;;;;2.00;2.00;;;;;;;;5038259;28;46218;-72
2022/04/03 02:48:22;;;;;;;;;0.75;0.25;;;;;;;;5038014;28;45304;-72
2022/04/03 02:50:47;;;;;;;;;1.50;1.50;;;;;;;;5042247;28;45150;-72
2022/04/03 02:53:12;;;;;;;;;1.75;1.00;;;;;;;;5042369;28;45310;-72
2022/04/03 02:55:38;;;;;;;;;1.50;1.00;;;;;;;;5038711;28;46207;-72
2022/04/03 02:58:04;;;;;;;;;1.00;0.50;;;;;;;;5039954;28;45481;-72
2022/04/03 03:00:30;;;;;;;;;0.00;0.00;;;;;;;;5039587;28;45489;-72
2022/04/03 03:02:55;;;;;;;;;1.00;1.00;;;;;;;;5037708;28;45386;-72
2022/04/03 03:05:21;;;;;;;;;0.00;0.00;;;;;;;;5041648;28;45416;-72
2022/04/03 03:07:46;;;;;;;;;2.00;1.00;;;;;;;;5040448;28;45845;-71
2022/04/03 03:10:17;;;;;;;;;1.75;1.00;;;;;;;;5039842;28;45429;-72
2022/04/03 03:12:42;;;;;;;;;1.25;0.00;;;;;;;;5045649;28;45496;-72
2022/04/03 03:15:08;;;;;;;;;1.00;1.00;;;;;;;;5037823;28;48383;-72
2022/04/03 03:17:33;;;;;;;;;0.00;0.00;;;;;;;;5041258;28;45463;-72
2022/04/03 03:19:58;;;;;;;;;1.00;1.00;;;;;;;;5039859;28;45323;-71
2022/04/03 03:22:24;;;;;;;;;1.00;1.00;;;;;;;;5054225;28;45657;-72
2022/04/03 03:24:49;;;;;;;;;1.00;1.00;;;;;;;;5037781;28;45445;-72
2022/04/03 03:27:15;;;;;;;;;2.00;1.00;;;;;;;;5036900;28;45211;-72
2022/04/03 03:29:40;;;;;;;;;2.50;1.00;;;;;;;;5042504;28;45504;-72
2022/04/03 03:32:07;;;;;;;;;2.00;2.00;;;;;;;;5056703;28;45521;-72
2022/04/03 03:34:34;;;;;;;;;0.00;0.00;;;;;;;;5057191;28;46608;-72
2022/04/03 03:36:59;;;;;;;;;1.00;1.00;;;;;;;;5057488;28;45533;-72
2022/04/03 03:39:26;;;;;;;;;0.00;0.00;;;;;;;;5056101;28;45553;-72
2022/04/03 03:41:52;;;;;;;;;1.25;1.00;;;;;;;;5056521;28;45525;-72
2022/04/03 03:44:17;;;;;;;;;2.00;2.00;;;;;;;;5056384;28;46060;-72
2022/04/03 03:46:43;;;;;;;;;0.25;0.25;;;;;;;;5057246;28;45338;-72
2022/04/03 03:49:08;;;;;;;;;1.00;1.00;;;;;;;;5057521;28;45398;-72
2022/04/03 03:51:35;;;;;;;;;1.00;0.75;;;;;;;;5057562;28;45213;-72
2022/04/03 03:54:00;;;;;;;;;3.50;1.00;;;;;;;;5057202;28;45480;-73
2022/04/03 03:56:26;;;;;;;;;1.00;1.00;;;;;;;;5055623;28;45420;-72
2022/04/03 03:58:51;;;;;;;;;1.00;1.00;;;;;;;;5057419;28;45389;-72
2022/04/03 04:01:17;;;;;;;;;1.00;1.00;;;;;;;;5044363;28;45435;-72
2022/04/03 04:03:42;;;;;;;;;0.00;0.00;;;;;;;;5036457;28;46474;-72
2022/04/03 04:06:08;;;;;;;;;0.75;0.00;;;;;;;;5051992;28;45772;-72
2022/04/03 04:08:33;;;;;;;;;1.00;1.00;;;;;;;;5038519;28;45595;-72
2022/04/03 04:10:58;;;;;;;;;0.25;0.25;;;;;;;;5056958;28;45295;-72
2022/04/03 04:13:24;;;;;;;;;2.00;2.00;;;;;;;;5056035;28;45520;-72
2022/04/03 04:15:50;;;;;;;;;0.25;0.25;;;;;;;;5054375;28;45382;-71
2022/04/03 04:18:15;;;;;;;;;1.00;1.00;;;;;;;;5036538;28;45477;-72
2022/04/03 04:20:40;;;;;;;;;0.00;0.00;;;;;;;;5036578;28;45391;-72
2022/04/03 04:23:06;;;;;;;;;4.25;2.00;;;;;;;;5036448;28;45399;-72
2022/04/03 04:25:31;;;;;;;;;2.00;2.00;;;;;;;;5048211;28;45486;-72
2022/04/03 04:27:57;;;;;;;;;2.00;2.00;;;;;;;;5036366;28;45530;-72
2022/04/03 04:30:22;;;;;;;;;1.00;1.00;;;;;;;;5045046;28;45212;-72
2022/04/03 04:32:47;;;;;;;;;1.25;0.75;;;;;;;;5058999;28;46096;-72
2022/04/03 04:35:13;;;;;;;;;1.00;1.00;;;;;;;;5060023;28;45793;-72
2022/04/03 04:37:38;;;;;;;;;1.50;1.50;;;;;;;;5058714;28;45502;-72
2022/04/03 04:40:05;;;;;;;;;1.25;1.00;;;;;;;;5060484;28;45460;-72
2022/04/03 04:42:30;;;;;;;;;1.75;1.75;;;;;;;;5059550;28;46379;-72
2022/04/03 04:44:55;;;;;;;;;2.00;2.00;;;;;;;;5060190;28;45457;-72
2022/04/03 04:47:21;;;;;;;;;3.00;2.00;;;;;;;;5059217;28;45350;-72
2022/04/03 04:49:46;;;;;;;;;2.50;2.50;;;;;;;;5058812;28;45556;-72
2022/04/03 04:52:12;;;;;;;;;7.50;5.00;;;;;;;;5045115;28;45476;-72
2022/04/03 04:54:38;;;;;;;;;14.25;12.25;;;;;;;;5037285;28;45749;-72
2022/04/03 04:57:04;;;;;;;;;18.25;18.00;;;;;;;;5042820;28;46153;-72
2022/04/03 04:59:29;;;;;;;;;14.00;13.25;;;;;;;;5059949;28;45354;-72
2022/04/03 05:01:56;;;;;;;;;4.00;4.00;;;;;;;;5042287;28;45419;-72
2022/04/03 05:04:24;;;;;;;;;4.00;4.00;;;;;;;;5040138;28;45350;-72
2022/04/03 05:06:50;;;;;;;;;2.00;2.00;;;;;;;;5039592;28;45146;-72
2022/04/03 05:09:17;;;;;;;;;2.00;2.00;;;;;;;;5054740;28;45448;-72
2022/04/03 05:11:43;;;;;;;;;7.00;5.00;;;;;;;;5038678;28;46737;-72
2022/04/03 05:14:08;;;;;;;;;5.00;4.00;;;;;;;;5045606;28;45431;-72
2022/04/03 05:16:34;;;;;;;;;15.00;14.00;;;;;;;;5047134;28;45639;-72
2022/04/03 05:18:59;;;;;;;;;7.50;6.50;;;;;;;;5037368;28;45591;-72
2022/04/03 05:21:25;;;;;;;;;6.00;5.50;;;;;;;;5054324;28;45616;-72
2022/04/03 05:23:51;;;;;;;;;9.25;9.25;;;;;;;;5039100;28;45552;-73
2022/04/03 05:26:19;;;;;;;;;7.50;5.00;;;;;;;;5047220;28;45509;-72
2022/04/03 05:28:44;;;;;;;;;7.00;6.50;;;;;;;;5052810;28;45329;-72
2022/04/03 05:31:10;;;;;;;;;4.00;4.00;;;;;;;;5057766;28;46159;-72
2022/04/03 05:33:36;;;;;;;;;7.50;7.50;;;;;;;;5056094;28;45576;-72
2022/04/03 05:36:01;;;;;;;;;11.00;9.50;;;;;;;;5044192;28;45817;-72
2022/04/03 05:38:27;;;;;;;;;7.50;7.00;;;;;;;;5049097;28;45545;-72
2022/04/03 05:40:52;;;;;;;;;1.00;1.00;;;;;;;;5047628;28;45477;-72
2022/04/03 05:43:17;;;;;;;;;1.00;1.00;;;;;;;;5040559;28;45398;-72
2022/04/03 05:45:43;;;;;;;;;1.75;1.75;;;;;;;;5043774;28;45330;-72
2022/04/03 05:48:08;;;;;;;;;2.00;2.00;;;;;;;;5049122;28;45474;-72
2022/04/03 05:50:35;;;;;;;;;3.00;2.00;;;;;;;;5038542;28;46071;-71
2022/04/03 05:53:01;;;;;;;;;1.00;1.00;;;;;;;;5053515;28;45397;-71
2022/04/03 05:55:26;;;;;;;;;12.25;10.00;;;;;;;;5043722;28;45508;-71
2022/04/03 05:57:52;;;;;;;;;4.00;4.00;;;;;;;;5058318;28;45469;-72
2022/04/03 06:00:19;;;;;;;;;8.00;8.00;;;;;;;;5057906;28;46266;-72
2022/04/03 06:02:48;;;;;;;;;5.00;5.00;;;;;;;;5039932;28;45693;-71
2022/04/03 06:05:18;;;;;;;;;4.00;4.00;;;;;;;;5050643;28;45547;-72
2022/04/03 06:07:43;;;;;;;;;4.00;4.00;;;;;;;;5038596;28;45355;-72
2022/04/03 06:10:09;;;;;;;;;2.50;2.50;;;;;;;;5038335;28;46536;-72
2022/04/03 06:12:34;;;;;;;;;2.50;2.50;;;;;;;;5052742;28;45520;-71
2022/04/03 06:14:59;;;;;;;;;4.25;2.00;;;;;;;;5056618;28;45215;-71
2022/04/03 06:17:25;;;;;;;;;2.00;2.00;;;;;;;;5054891;28;45385;-71
2022/04/03 06:19:50;;;;;;;;;3.00;3.00;;;;;;;;5054922;28;46570;-72
2022/04/03 06:22:16;;;;;;;;;14.25;11.75;;;;;;;;5052161;28;45799;-71
2022/04/03 06:24:41;;;;;;;;;8.00;7.00;;;;;;;;5055993;28;45725;-71
2022/04/03 06:27:06;;;;;;;;;2.00;2.00;;;;;;;;5052084;28;45644;-72
2022/04/03 06:29:32;;;;;;;;;6.50;5.50;;;;;;;;5054355;28;47206;-71
2022/04/03 06:31:57;;;;;;;;;9.25;9.25;;;;;;;;5055352;28;45715;-72
2022/04/03 06:34:23;;;;;;;;;8.00;8.00;;;;;;;;5055428;28;45529;-72
2022/04/03 06:36:49;;;;;;;;;34.75;28.25;;;;;;;;5054439;28;45354;-71
2022/04/03 06:39:14;;;;;;;;;21.00;19.00;;;;;;;;5054239;28;45607;-71
2022/04/03 06:41:40;;;;;;;;;18.00;18.00;;;;;;;;5052793;28;45562;-71
2022/04/03 06:44:05;;;;;;;;;22.50;19.00;;;;;;;;5055312;28;45504;-71
2022/04/03 06:46:31;;;;;;;;;18.75;18.75;;;;;;;;5055694;28;45567;-72
2022/04/03 06:48:57;;;;;;;;;12.75;8.75;;;;;;;;5056412;28;45581;-71
2022/04/03 06:51:22;;;;;;;;;25.50;25.00;;;;;;;;5052915;28;45523;-72
2022/04/03 06:53:48;;;;;;;;;23.00;22.75;;;;;;;;5051640;28;45708;-72
2022/04/03 06:56:14;;;;;;;;;23.00;22.50;;;;;;;;5052444;28;45900;-72
2022/04/03 06:58:39;;;;;;;;;6.00;6.00;;;;;;;;5054320;28;46372;-71
2022/04/03 07:01:05;;;;;;;;;13.00;10.00;;;;;;;;5053592;28;45492;-73
2022/04/03 07:03:32;;;;;;;;;5.00;5.00;;;;;;;;5050765;28;45481;-73
2022/04/03 07:05:58;;;;;;;;;34.75;32.75;;;;;;;;5055507;28;45405;-71
2022/04/03 07:08:23;;;;;;;;;58.75;46.00;;;;;;;;5052239;28;46190;-71
2022/04/03 07:10:50;;;;;;;;;13.00;10.50;;;;;;;;5054579;28;45863;-72
2022/04/03 07:13:15;;;;;;;;;16.50;14.50;;;;;;;;5051380;28;45437;-71
2022/04/03 07:15:40;;;;;;;;;23.50;20.00;;;;;;;;5054102;28;45389;-72
2022/04/03 07:18:07;;;;;;;;;38.25;34.25;;;;;;;;5052476;28;46116;-71
2022/04/03 07:20:33;;;;;;;;;33.25;31.00;;;;;;;;5052417;28;45375;-72
2022/04/03 07:22:58;;;;;;;;;30.50;29.75;;;;;;;;5053595;28;45705;-72
2022/04/03 07:25:23;;;;;;;;;33.25;29.50;;;;;;;;5054142;28;45613;-72
2022/04/03 07:27:49;;;;;;;;;20.25;19.00;;;;;;;;5053046;28;45645;-72
2022/04/03 07:30:14;;;;;;;;;13.00;12.00;;;;;;;;5050390;28;45385;-72
2022/04/03 07:32:40;;;;;;;;;29.50;26.25;;;;;;;;5053658;28;45413;-72
2022/04/03 07:35:06;;;;;;;;;9.00;8.50;;;;;;;;5054823;28;45394;-72
2022/04/03 07:37:32;;;;;;;;;24.00;20.75;;;;;;;;5053161;28;45431;-72
2022/04/03 07:39:58;;;;;;;;;23.75;20.75;;;;;;;;5053653;28;45499;-72
2022/04/03 07:42:23;;;;;;;;;7.67;7.67;;;;;;;;5052264;28;45550;-73
2022/04/03 07:44:48;;;;;;;;;14.33;13.67;;;;;;;;5052110;28;45408;-72
2022/04/03 07:47:14;;;;;;;;;16.00;15.67;;;;;;;;5053840;28;45718;-72
2022/04/03 07:49:40;;;;;;;;;25.25;25.00;;;;;;;;5053698;28;45446;-72
2022/04/03 07:52:05;;;;;;;;;27.75;24.75;;;;;;;;5052695;28;45414;-73
2022/04/03 07:54:31;;;;;;;;;17.00;15.00;;;;;;;;5052246;28;45573;-73
2022/04/03 07:56:56;;;;;;;;;14.00;13.67;;;;;;;;5052705;28;45512;-73
2022/04/03 07:59:21;;;;;;;;;6.33;6.00;;;;;;;;5048792;28;45476;-73
2022/04/03 08:01:47;;;;;;;;;9.00;9.00;;;;;;;;5051935;28;45462;-73
2022/04/03 08:04:13;;;;;;;;;4.67;4.00;;;;;;;;5034894;28;45320;-73
2022/04/03 08:06:39;;;;;;;;;5.00;4.00;;;;;;;;5049023;28;46222;-72
2022/04/03 08:09:07;;;;;;;;;12.33;11.33;;;;;;;;5053160;28;45631;-74
2022/04/03 08:11:32;;;;;;;;;10.67;10.00;;;;;;;;5051991;28;45631;-74
2022/04/03 08:13:58;;;;;;;;;5.00;4.00;;;;;;;;5047638;28;45456;-74
2022/04/03 08:16:23;;;;;;;;;10.00;9.67;;;;;;;;5052054;28;46120;-73
2022/04/03 08:18:49;;;;;;;;;6.00;6.00;;;;;;;;5052274;28;45628;-73
2022/04/03 08:21:14;;;;;;;;;5.67;5.00;;;;;;;;5052827;28;45779;-75
2022/04/03 08:23:40;;;;;;;;;3.00;3.00;;;;;;;;5037715;28;45530;-73
2022/04/03 08:26:05;;;;;;;;;2.00;2.00;;;;;;;;5052943;28;46639;-75
2022/04/03 08:28:31;;;;;;;;;6.33;3.00;;;;;;;;5043102;28;45457;-75
2022/04/03 08:30:56;;;;;;;;;2.00;2.00;;;;;;;;5044289;28;45593;-73
2022/04/03 08:33:22;;;;;;;;;3.00;3.00;;;;;;;;5040784;28;45635;-74
2022/04/03 08:35:50;;;;;;;;;2.00;2.00;;;;;;;;5034161;28;45884;-74
2022/04/03 08:38:16;;;;;;;;;3.67;3.67;;;;;;;;5014163;28;45659;-73
2022/04/03 08:40:42;;;;;;;;;3.00;3.00;;;;;;;;5049727;28;45493;-73
2022/04/03 08:43:08;;;;;;;;;5.00;5.00;;;;;;;;5048432;28;45480;-73
2022/04/03 08:45:33;;;;;;;;;19.67;19.00;;;;;;;;5041068;28;45995;-72
2022/04/03 08:47:59;;;;;;;;;4.00;4.00;;;;;;;;5036013;28;45537;-71
2022/04/03 08:50:28;;;;;;;;;8.00;7.67;;;;;;;;5053222;28;45459;-75
2022/04/03 08:52:54;;;;;;;;;7.00;6.00;;;;;;;;5040714;28;45457;-74
2022/04/03 08:55:20;;;;;;;;;5.00;5.00;;;;;;;;5040891;28;46823;-73
2022/04/03 08:57:45;;;;;;;;;6.00;5.67;;;;;;;;5055358;28;46037;-74
2022/04/03 09:00:13;;;;;;;;;6.67;6.00;;;;;;;;5050669;28;45737;-74
2022/04/03 09:02:38;;;;;;;;;6.67;6.67;;;;;;;;5049821;28;45414;-74
2022/04/03 09:05:04;;;;;;;;;15.00;14.00;;;;;;;;5051885;28;46573;-73
2022/04/03 09:07:30;;;;;;;;;6.00;6.00;;;;;;;;5052286;28;46951;-74
2022/04/03 09:09:56;;;;;;;;;9.00;8.00;;;;;;;;5051690;28;45555;-71
2022/04/03 09:12:21;;;;;;;;;6.00;6.00;;;;;;;;5051525;28;45566;-72
2022/04/03 09:14:49;;;;;;;;;7.00;7.00;;;;;;;;5050028;28;47599;-73
2022/04/03 09:17:33;;;;;;;;;5.00;5.00;;;;;;;;5052974;28;45381;-73
2022/04/03 09:20:06;;;;;;;;;2.00;1.67;;;;;;;;5053387;28;45589;-74
2022/04/03 09:22:33;;;;;;;;;4.00;3.67;;;;;;;;5055732;28;45488;-74
2022/04/03 09:24:59;;;;;;;;;4.00;3.00;;;;;;;;5054862;28;46300;-73
2022/04/03 09:27:24;;;;;;;;;4.33;4.00;;;;;;;;5050653;28;45426;-74
2022/04/03 09:30:02;;;;;;;;;3.67;3.67;;;;;;;;5053753;28;45832;-78
2022/04/03 09:32:27;;;;;;;;;5.00;3.67;;;;;;;;5055678;28;45624;-73
2022/04/03 09:34:55;;;;;;;;;2.33;2.33;;;;;;;;5052676;28;46876;-73
2022/04/03 09:37:22;;;;;;;;;4.67;3.67;;;;;;;;5053576;28;45564;-73
2022/04/03 09:39:47;;;;;;;;;2.00;2.00;;;;;;;;5054036;28;45551;-73
2022/04/03 09:42:15;;;;;;;;;3.33;3.33;;;;;;;;5055469;28;45440;-74
2022/04/03 09:44:42;;;;;;;;;4.33;4.00;;;;;;;;5054847;28;46595;-73
2022/04/03 09:47:26;;;;;;;;;4.67;3.67;;;;;;;;5055839;28;45487;-71
2022/04/03 09:49:53;;;;;;;;;1.67;1.67;;;;;;;;5052000;28;45611;-74
2022/04/03 09:52:31;;;;;;;;;4.00;2.00;;;;;;;;5054987;28;45500;-76
2022/04/03 09:54:57;;;;;;;;;4.00;2.33;;;;;;;;5044635;28;45491;-76
2022/04/03 09:57:24;;;;;;;;;4.00;4.00;;;;;;;;5037317;28;45758;-75
2022/04/03 09:59:50;;;;;;;;;3.00;3.00;;;;;;;;5042159;28;45363;-72
2022/04/03 10:02:16;;;;;;;;;3.00;3.00;;;;;;;;5047750;28;45564;-72
2022/04/03 10:04:43;;;;;;;;;3.00;3.00;;;;;;;;5037667;28;45754;-71
2022/04/03 10:07:12;;;;;;;;;4.00;4.00;;;;;;;;5053456;28;45355;-74
2022/04/03 10:09:40;;;;;;;;;6.67;5.00;;;;;;;;5038716;28;45356;-71
2022/04/03 10:12:06;;;;;;;;;3.67;3.33;;;;;;;;5054404;28;45477;-79
2022/04/03 10:14:32;;;;;;;;;3.00;3.00;;;;;;;;5041357;28;46800;-70
2022/04/03 10:16:58;;;;;;;;;12.33;12.00;;;;;;;;5048945;28;45466;-73
2022/04/03 10:19:23;;;;;;;;;3.00;3.00;;;;;;;;5049439;28;45620;-70
2022/04/03 10:21:53;;;;;;;;;8.00;8.00;;;;;;;;5040771;28;45363;-71
2022/04/03 10:24:19;;;;;;;;;17.67;16.00;;;;;;;;5037141;28;46338;-71
2022/04/03 10:26:50;;;;;;;;;7.00;6.00;;;;;;;;5048121;28;45663;-74
2022/04/03 10:29:16;;;;;;;;;12.33;10.67;;;;;;;;5052212;28;45571;-71
2022/04/03 10:31:53;;;;;;;;;8.67;8.33;;;;;;;;5051926;28;45472;-74
2022/04/03 10:34:20;;;;;;;;;10.00;7.67;;;;;;;;5051095;28;45526;-71
2022/04/03 10:36:46;;;;;;;;;4.67;4.67;;;;;;;;5051424;28;45560;-78
2022/04/03 10:39:20;;;;;;;;;3.33;3.33;;;;;;;;5056699;28;45658;-81
2022/04/03 10:41:46;;;;;;;;;5.00;3.00;;;;;;;;5051288;28;45575;-71
2022/04/03 10:44:22;;;;;;;;;6.00;6.00;;;;;;;;5051860;27;46503;-71
2022/04/03 10:47:03;;;;;;;;;9.33;7.67;;;;;;;;5056436;28;45501;-73
2022/04/03 10:49:31;;;;;;;;;9.00;8.67;;;;;;;;5037344;28;45505;-72
2022/04/03 10:52:01;;;;;;;;;5.00;4.33;;;;;;;;5037081;28;45577;-73
2022/04/03 10:54:30;;;;;;;;;12.00;11.33;;;;;;;;5037167;28;45855;-71
2022/04/03 10:57:14;;;;;;;;;3.00;3.00;;;;;;;;5050943;28;45426;-71
2022/04/03 10:59:40;;;;;;;;;6.00;5.67;;;;;;;;5041608;28;45497;-71
2022/04/03 11:02:14;;;;;;;;;6.67;5.67;;;;;;;;5046165;28;45595;-70
2022/04/03 11:04:40;;;;;;;;;6.00;6.00;;;;;;;;5050667;28;46806;-74
2022/04/03 11:07:12;;;;;;;;;7.00;7.00;;;;;;;;5035221;28;45435;-71
2022/04/03 11:09:39;;;;;;;;;8.00;7.00;;;;;;;;5052425;28;45519;-71
2022/04/03 11:12:05;;;;;;;;;9.00;8.33;;;;;;;;5043762;28;45486;-70
2022/04/03 11:14:53;;;;;;;;;6.00;5.00;;;;;;;;5051889;28;45625;-71
2022/04/03 11:17:19;;;;;;;;;3.33;3.33;;;;;;;;5036940;28;45347;-74
2022/04/03 11:19:45;;;;;;;;;14.33;13.00;;;;;;;;5038613;28;45421;-71
2022/04/03 11:22:20;;;;;;;;;8.00;7.00;;;;;;;;5049071;28;45453;-73
2022/04/03 11:24:45;;;;;;;;;6.67;6.00;;;;;;;;5046588;28;45509;-70
2022/04/03 11:27:12;;;;;;;;;5.67;5.67;;;;;;;;5053554;28;45496;-72
2022/04/03 11:29:37;;;;;;;;;9.25;8.25;;;;;;;;5035325;28;45337;-71
2022/04/03 11:32:04;;;;;;;;;11.75;11.25;;;;;;;;5044562;28;45711;-70
2022/04/03 11:34:30;;;;;;;;;6.00;6.00;;;;;;;;5056426;28;46611;-71
2022/04/03 11:36:57;;;;;;;;;7.00;7.00;;;;;;;;5040075;28;45234;-71
2022/04/03 11:39:29;;;;;;;;;11.00;9.00;;;;;;;;5051585;28;45331;-71
2022/04/03 11:41:54;;;;;;;;;11.25;9.50;;;;;;;;5036656;28;45477;-74
2022/04/03 11:44:20;;;;;;;;;8.00;8.00;;;;;;;;5034746;28;46222;-72
2022/04/03 11:46:46;;;;;;;;;16.25;14.75;;;;;;;;5036529;28;45341;-70
2022/04/03 11:49:11;;;;;;;;;16.25;15.25;;;;;;;;5050327;28;45306;-73
2022/04/03 11:51:37;;;;;;;;;9.50;8.00;;;;;;;;5039238;28;45351;-70
2022/04/03 11:54:02;;;;;;;;;12.00;12.00;;;;;;;;5056784;28;45991;-73
2022/04/03 11:56:31;;;;;;;;;5.75;5.75;;;;;;;;5036171;28;45389;-71
2022/04/03 11:58:57;;;;;;;;;7.00;6.75;;;;;;;;5043898;28;45256;-71
2022/04/03 12:01:27;;;;;;;;;19.50;17.75;;;;;;;;5038254;28;45454;-70
2022/04/03 12:04:02;;;;;;;;;5.50;5.50;;;;;;;;5046665;28;46310;-71
2022/04/03 12:06:29;;;;;;;;;9.50;9.00;;;;;;;;5035859;28;45552;-71
2022/04/03 12:08:54;;;;;;;;;13.00;12.00;;;;;;;;5046309;28;45556;-73
2022/04/03 12:11:23;;;;;;;;;26.50;26.50;;;;;;;;5054446;28;45596;-70
2022/04/03 12:13:48;;;;;;;;;12.00;10.25;;;;;;;;5036179;28;46203;-73
2022/04/03 12:16:17;;;;;;;;;12.00;9.25;;;;;;;;5035772;28;45397;-74
2022/04/03 12:18:52;;;;;;;;;9.00;8.00;;;;;;;;5053583;28;45527;-71
2022/04/03 12:21:17;;;;;;;;;6.00;6.00;;;;;;;;5053475;28;45551;-73
2022/04/03 12:24:02;;;;;;;;;7.25;7.25;;;;;;;;5039168;28;46163;-70
2022/04/03 12:26:28;;;;;;;;;6.75;6.75;;;;;;;;5039248;28;45176;-70
2022/04/03 12:28:55;;;;;;;;;6.25;6.25;;;;;;;;5035464;28;45434;-70
2022/04/03 12:31:24;;;;;;;;;6.00;5.50;;;;;;;;5051091;28;45333;-73
2022/04/03 12:33:50;;;;;;;;;5.00;5.00;;;;;;;;5053380;28;46980;-71
2022/04/03 12:36:15;;;;;;;;;9.25;9.25;;;;;;;;5044858;28;45481;-75
2022/04/03 12:38:48;;;;;;;;;8.75;7.50;;;;;;;;5034275;28;45617;-74
2022/04/03 12:41:14;;;;;;;;;7.25;6.75;;;;;;;;5048495;28;45142;-71
2022/04/03 12:43:45;;;;;;;;;6.00;6.00;;;;;;;;5038542;28;45617;-71
2022/04/03 12:46:10;;;;;;;;;7.00;6.00;;;;;;;;5045656;28;45343;-70
2022/04/03 12:48:36;;;;;;;;;7.25;7.25;;;;;;;;5035182;28;45681;-70
2022/04/03 12:51:10;;;;;;;;;6.00;6.00;;;;;;;;5052390;28;45422;-74
2022/04/03 12:53:48;;;;;;;;;6.25;5.75;;;;;;;;5042153;28;45366;-73
2022/04/03 12:56:15;;;;;;;;;8.00;7.00;;;;;;;;5058607;28;45497;-73
2022/04/03 12:58:41;;;;;;;;;5.00;4.50;;;;;;;;5045105;28;45484;-70
2022/04/03 13:01:07;;;;;;;;;6.50;6.00;;;;;;;;5054373;28;45521;-73
2022/04/03 13:03:34;;;;;;;;;5.50;5.50;;;;;;;;5041947;28;45553;-72
2022/04/03 13:06:00;;;;;;;;;6.00;6.00;;;;;;;;5050606;28;45452;-70
2022/04/03 13:08:26;;;;;;;;;6.00;6.00;;;;;;;;5041547;28;45450;-73
2022/04/03 13:10:53;;;;;;;;;7.75;7.00;;;;;;;;5039156;28;45486;-71
2022/04/03 13:13:29;;;;;;;;;6.25;6.00;;;;;;;;5038728;28;46273;-71
2022/04/03 13:15:55;;;;;;;;;6.00;5.00;;;;;;;;5054188;28;45244;-73
2022/04/03 13:18:21;;;;;;;;;8.25;7.50;;;;;;;;5046908;28;45385;-71
2022/04/03 13:20:50;;;;;;;;;8.00;7.25;;;;;;;;5046462;28;45414;-70
2022/04/03 13:23:16;;;;;;;;;9.50;8.50;;;;;;;;5038371;28;45597;-70
2022/04/03 13:25:41;;;;;;;;;8.75;7.25;;;;;;;;5042997;28;45378;-71
2022/04/03 13:28:07;;;;;;;;;7.25;7.00;;;;;;;;5050277;28;45294;-71
2022/04/03 13:30:33;;;;;;;;;15.25;12.00;;;;;;;;5044379;28;45434;-71
2022/04/03 13:32:58;;;;;;;;;9.00;9.00;;;;;;;;5051626;28;45640;-72
2022/04/03 13:35:24;;;;;;;;;10.00;9.00;;;;;;;;5038004;28;45525;-74
2022/04/03 13:37:49;;;;;;;;;10.50;10.00;;;;;;;;5045271;28;45393;-73
2022/04/03 13:40:14;;;;;;;;;9.75;9.00;;;;;;;;5046017;28;45441;-73
2022/04/03 13:42:40;;;;;;;;;18.25;13.50;;;;;;;;5053778;28;45475;-73
2022/04/03 13:45:05;;;;;;;;;11.25;10.25;;;;;;;;5042201;28;45470;-71
2022/04/03 13:47:31;;;;;;;;;10.50;10.00;;;;;;;;5043496;28;45705;-73
2022/04/03 13:49:57;;;;;;;;;15.00;14.25;;;;;;;;5044109;28;45504;-72
2022/04/03 13:52:24;;;;;;;;;11.50;9.00;;;;;;;;5040407;28;46522;-73
2022/04/03 13:54:49;;;;;;;;;11.00;10.00;;;;;;;;5038767;28;45577;-72
2022/04/03 13:57:14;;;;;;;;;8.25;7.25;;;;;;;;5039756;28;45413;-71
2022/04/03 13:59:40;;;;;;;;;11.75;10.25;;;;;;;;5041818;28;45641;-72
2022/04/03 14:02:05;;;;;;;;;12.75;10.25;;;;;;;;5045816;28;45957;-72
2022/04/03 14:04:31;;;;;;;;;15.50;13.00;;;;;;;;5040891;28;45469;-73
2022/04/03 14:06:56;;;;;;;;;20.50;19.25;;;;;;;;5042561;28;45462;-73
2022/04/03 14:09:21;;;;;;;;;15.00;13.75;;;;;;;;5039402;28;45563;-71
2022/04/03 14:11:47;;;;;;;;;16.25;16.00;;;;;;;;5042387;28;45364;-73
2022/04/03 14:14:13;;;;;;;;;23.75;22.25;;;;;;;;5040461;28;45720;-73
2022/04/03 14:16:38;;;;;;;;;18.00;17.50;;;;;;;;5038716;28;45445;-73
2022/04/03 14:19:04;;;;;;;;;25.25;23.00;;;;;;;;5040488;28;46169;-73
2022/04/03 14:21:31;;;;;;;;;27.50;24.25;;;;;;;;5040042;28;45530;-72
2022/04/03 14:23:57;;;;;;;;;31.50;26.25;;;;;;;;5046676;28;45514;-73
2022/04/03 14:26:22;;;;;;;;;38.75;33.50;;;;;;;;5044310;28;45994;-73
2022/04/03 14:28:48;;;;;;;;;18.25;16.00;;;;;;;;5042381;28;45549;-72
2022/04/03 14:31:13;;;;;;;;;18.00;17.50;;;;;;;;5042214;28;45571;-71
2022/04/03 14:33:38;;;;;;;;;25.25;23.00;;;;;;;;5039740;28;45521;-72